Aeroporto :
LOGIN :

Iscrizione | Disclaimer

   EN    FR    IT 

 










Sommario :    VFR   VFR Marginale   IFR   IFR Intensivo   IFR Molto Intensivo
Visibilità : 
Base nubi : 
>= 8 km
>= 3000ft
5 / 8 km
1000 / 3000 ft
1500m / 5 km
500 / 1000 ft
800 / 1500m
200 / 500 ft
< 800m
< 200 ft
Simboli :   Temporali  Nebbia  Neve Forte  Precipitazioni Forti  Vento > 20 kt
SIGMETs :   Varie  Temporali  Ghiacco  Turbolenza  Onda orograficha  Ceneri Vulcaniche






- Altitudine del aeroporto : 284 ft


EGUW - RAF Wattisham

ULTIMO METAR :
  • 201850Z 13014KT 9999 FEW028 BKN250 05/01 Q1010 NOSIG RMK BLU BLU

METARs OBSOLETI :
  • 201820Z 13010KT 9999 FEW028 BKN250 05/01 Q1010 NOSIG RMK BLU BLU
  • 201750Z 13010KT 9999 FEW028 BKN250 05/01 Q1011 NOSIG RMK BLU BLU
  • 201720Z 13011KT CAVOK 05/01 Q1010 NOSIG RMK BLU BLU
  • 201650Z 12011KT CAVOK 05/01 Q1011 NOSIG RMK BLU BLU
  • 201620Z 13011KT CAVOK 05/01 Q1011 NOSIG RMK BLU BLU

TAF TAF EGUW
Valido dal 20 a 18 ore il 21 a 02 ore UTC


201656Z 2018/2102 12013KT 9999 FEW030
PROB40
TEMPO 2022/2102 BKN018



MetMap, La meteo Aeronautica in un colpo d'occhio ! - Copyright ORBIFLY Dicembre 2007 - Disclaimer

ORBIFLY MET'MAP TEAM :

Programmazione e sviluppo : Alexandra Zaïnal
Concezione e sviluppo : Baudouin d'Aumeries
Co-Programmazione e sviluppo : Marc-Olivier Méhu
Supporto tecnico e logistico : Manuel Goepfert
Aiuto per la traduzione : Arnaldo La Scala

Contatto : metmap@orbifly.com




FONTI E CREDITI :

   NOAA